Time;durP1;ratioP1;P1;durP2;ratioP2;P2;SDS_P1;SDS_P2;PMS_P1;PMS_P2;Temp;Humidity;BMP_temperature;BMP_pressure;BME280_temperature;BME280_humidity;BME280_pressure;Samples;Min_cycle;Max_cycle;Signal;HPM_P1;HPM_P2
2023/10/11 00:00:34;;;;;;;9.18;5.15;;;;;;;8.99;100.00;93508.88;2099943;28;20032;-84
2023/10/11 00:01:35;;;;;;;6.88;3.55;;;;;;;9.03;100.00;93508.84;2095899;28;20431;-85
2023/10/11 00:02:37;;;;;;;7.53;3.90;;;;;;;8.97;100.00;93507.75;2093073;28;20067;-84
2023/10/11 00:03:45;;;;;;;12.13;4.47;;;;;;;9.01;100.00;93509.25;2085461;28;20025;-84
2023/10/11 00:04:48;;;;;;;7.00;4.07;;;;;;;8.93;100.00;93510.47;2082377;28;20367;-84
2023/10/11 00:05:50;;;;;;;8.88;4.40;;;;;;;8.97;100.00;93515.75;2098143;28;20036;-84
2023/10/11 00:06:54;;;;;;;6.50;3.95;;;;;;;8.88;100.00;93508.22;2100356;28;20025;-84
2023/10/11 00:07:58;;;;;;;8.20;3.83;;;;;;;8.97;100.00;93507.75;2099939;28;20023;-84
2023/10/11 00:08:59;;;;;;;8.13;3.15;;;;;;;8.94;100.00;93503.97;2106150;28;20077;-85
2023/10/11 00:09:59;;;;;;;6.88;4.20;;;;;;;8.93;100.00;93509.72;2099143;28;20471;-85
2023/10/11 00:11:01;;;;;;;9.23;4.22;;;;;;;9.00;100.00;93509.63;2103095;28;20024;-85
2023/10/11 00:12:04;;;;;;;11.02;4.40;;;;;;;8.99;100.00;93510.78;2110896;28;20020;-85
2023/10/11 00:13:07;;;;;;;8.60;4.60;;;;;;;8.91;100.00;93502.13;2107247;28;20101;-84
2023/10/11 00:14:08;;;;;;;7.78;3.92;;;;;;;8.96;100.00;93509.69;2084751;28;20021;-84
2023/10/11 00:15:09;;;;;;;8.63;4.00;;;;;;;8.90;100.00;93502.50;2082966;28;20020;-84
2023/10/11 00:16:11;;;;;;;4.90;3.42;;;;;;;8.97;100.00;93508.53;2080957;28;20112;-84
2023/10/11 00:17:11;;;;;;;10.02;3.95;;;;;;;8.90;100.00;93507.81;2104221;28;20031;-85
2023/10/11 00:18:12;;;;;;;9.85;3.95;;;;;;;8.95;100.00;93500.16;2112539;28;20031;-85
2023/10/11 00:19:15;;;;;;;9.13;4.05;;;;;;;9.03;100.00;93504.25;2102536;28;20031;-85
2023/10/11 00:20:27;;;;;;;7.45;4.03;;;;;;;8.83;100.00;93496.09;2097194;28;20330;-85
2023/10/11 00:21:40;;;;;;;8.13;3.92;;;;;;;8.81;100.00;93501.03;2103923;28;20035;-85
2023/10/11 00:22:42;;;;;;;7.22;3.55;;;;;;;8.88;100.00;93505.56;2095410;28;20020;-84
2023/10/11 00:23:46;;;;;;;10.90;4.00;;;;;;;8.89;100.00;93501.72;2088287;28;20055;-85
2023/10/11 00:24:46;;;;;;;7.13;3.75;;;;;;;8.90;100.00;93503.25;2084630;28;20032;-85
2023/10/11 00:25:50;;;;;;;5.72;4.32;;;;;;;8.83;100.00;93506.00;2097509;28;20363;-85
2023/10/11 00:26:52;;;;;;;8.35;3.60;;;;;;;8.94;100.00;93514.63;2101856;28;20143;-85
2023/10/11 00:27:58;;;;;;;6.47;3.67;;;;;;;8.83;100.00;93512.06;2081222;28;20055;-84
2023/10/11 00:29:00;;;;;;;9.93;4.30;;;;;;;8.92;100.00;93500.19;2090821;28;20503;-84
2023/10/11 00:30:02;;;;;;;7.13;3.67;;;;;;;8.87;100.00;93504.06;2100303;28;20027;-85
2023/10/11 00:31:04;;;;;;;8.38;3.72;;;;;;;8.91;100.00;93501.34;2105873;28;20024;-85
2023/10/11 00:32:05;;;;;;;10.20;3.60;;;;;;;8.92;100.00;93505.53;2097705;28;20055;-85
2023/10/11 00:33:10;;;;;;;7.13;3.38;;;;;;;8.76;100.00;93503.38;2092067;28;20131;-85
2023/10/11 00:34:12;;;;;;;8.48;3.90;;;;;;;8.77;100.00;93504.88;2089756;28;20112;-85
2023/10/11 00:35:19;;;;;;;9.30;3.65;;;;;;;8.85;100.00;93503.69;2080551;28;20494;-85
2023/10/11 00:36:24;;;;;;;8.73;4.10;;;;;;;8.64;100.00;93503.84;2097390;28;20024;-85
2023/10/11 00:37:26;;;;;;;10.63;4.20;;;;;;;8.71;100.00;93507.22;2089281;28;20024;-84
2023/10/11 00:38:27;;;;;;;9.85;4.05;;;;;;;8.60;100.00;93503.88;2080776;28;20014;-84
2023/10/11 00:39:28;;;;;;;6.03;3.35;;;;;;;8.48;100.00;93502.47;2097518;28;20654;-85
2023/10/11 00:40:33;;;;;;;8.57;3.50;;;;;;;8.49;100.00;93508.53;2089942;28;20029;-85
2023/10/11 00:41:39;;;;;;;8.40;3.80;;;;;;;8.52;100.00;93497.88;2095817;28;20490;-85
2023/10/11 00:42:42;;;;;;;7.95;3.53;;;;;;;8.51;100.00;93514.22;2093388;28;20115;-85
2023/10/11 00:43:54;;;;;;;6.65;3.45;;;;;;;8.50;100.00;93505.47;2086474;28;20060;-85
2023/10/11 00:44:55;;;;;;;8.02;3.40;;;;;;;8.36;100.00;93500.22;2092780;28;20108;-85
2023/10/11 00:45:59;;;;;;;5.38;3.20;;;;;;;8.46;100.00;93498.66;2083394;28;20030;-86
2023/10/11 00:47:00;;;;;;;9.93;3.28;;;;;;;8.50;100.00;93499.41;2087934;28;20024;-85
2023/10/11 00:48:06;;;;;;;9.60;4.05;;;;;;;8.36;100.00;93502.91;2093475;28;20025;-85
2023/10/11 00:49:12;;;;;;;6.80;3.53;;;;;;;8.41;100.00;93499.84;2094779;28;20110;-85
2023/10/11 00:50:15;;;;;;;7.65;3.50;;;;;;;8.28;100.00;93496.09;2102928;28;20056;-84
2023/10/11 00:51:29;;;;;;;7.70;3.58;;;;;;;8.26;100.00;93501.84;2097947;28;20029;-84
2023/10/11 00:52:30;;;;;;;6.45;3.78;;;;;;;8.38;100.00;93494.53;2091182;28;20025;-85
2023/10/11 00:53:34;;;;;;;8.38;3.40;;;;;;;8.39;100.00;93494.16;2102673;28;20027;-85
2023/10/11 00:54:43;;;;;;;8.27;3.70;;;;;;;8.43;100.00;93494.91;2096890;28;20079;-85
2023/10/11 00:55:45;;;;;;;7.65;3.80;;;;;;;8.33;100.00;93490.34;2094878;28;20020;-85
2023/10/11 00:56:47;;;;;;;9.63;3.33;;;;;;;8.29;100.00;93495.69;2097811;28;20517;-84
2023/10/11 00:57:49;;;;;;;8.85;4.07;;;;;;;8.28;100.00;93488.88;2114245;28;20016;-84
2023/10/11 00:58:50;;;;;;;6.05;3.47;;;;;;;8.32;100.00;93488.84;2109427;28;20384;-84
2023/10/11 00:59:51;;;;;;;5.15;3.22;;;;;;;8.33;100.00;93485.03;2099861;28;20031;-85
2023/10/11 01:00:52;;;;;;;10.77;3.90;;;;;;;8.26;100.00;93482.44;2106007;28;20028;-85
2023/10/11 01:01:55;;;;;;;7.88;4.00;;;;;;;8.27;100.00;93483.94;2101585;28;20031;-85
2023/10/11 01:02:56;;;;;;;9.70;3.63;;;;;;;8.31;100.00;93482.00;2093056;28;20057;-85
2023/10/11 01:03:57;;;;;;;7.65;3.75;;;;;;;8.32;100.00;93478.94;2096813;28;20021;-85
2023/10/11 01:04:58;;;;;;;7.53;3.22;;;;;;;8.25;100.00;93481.69;2099689;28;20094;-84
2023/10/11 01:06:00;;;;;;;8.40;4.00;;;;;;;8.20;100.00;93484.72;2090113;28;20061;-85
2023/10/11 01:07:02;;;;;;;9.63;3.65;;;;;;;8.32;100.00;93481.63;2096711;28;20363;-84
2023/10/11 01:08:03;;;;;;;9.45;3.10;;;;;;;8.27;100.00;93489.28;2109892;28;20123;-85
2023/10/11 01:09:27;;;;;;;11.43;3.40;;;;;;;8.34;100.00;93483.91;2099593;28;20551;-84
2023/10/11 01:10:29;;;;;;;6.78;3.22;;;;;;;8.45;100.00;93475.84;2093926;28;20096;-85
2023/10/11 01:11:30;;;;;;;8.07;3.38;;;;;;;8.41;100.00;93477.78;2075691;28;20053;-85
2023/10/11 01:12:32;;;;;;;6.80;3.45;;;;;;;8.31;100.00;93477.44;2082257;28;20029;-85
2023/10/11 01:13:33;;;;;;;9.25;3.28;;;;;;;8.32;100.00;93476.28;2090009;28;20029;-85
2023/10/11 01:14:56;;;;;;;5.93;3.30;;;;;;;8.15;100.00;93487.06;2090866;28;20017;-85
2023/10/11 01:15:56;;;;;;;7.65;3.15;;;;;;;8.24;100.00;93474.06;2086179;28;20031;-86
2023/10/11 01:16:58;;;;;;;8.55;3.33;;;;;;;8.21;100.00;93474.84;2089050;28;20052;-85
2023/10/11 01:18:00;;;;;;;8.15;3.35;;;;;;;8.32;100.00;93475.53;2093106;28;20028;-85
2023/10/11 01:19:01;;;;;;;6.65;3.47;;;;;;;8.39;100.00;93472.84;2090716;28;20119;-85
2023/10/11 01:20:06;;;;;;;8.95;3.65;;;;;;;8.25;100.00;93472.91;2101837;28;20481;-85
2023/10/11 01:21:08;;;;;;;8.63;3.72;;;;;;;8.25;100.00;93471.03;2106153;28;20460;-85
2023/10/11 01:22:09;;;;;;;8.52;3.70;;;;;;;8.10;100.00;93479.50;2084921;28;20117;-85
2023/10/11 01:23:10;;;;;;;9.70;3.63;;;;;;;7.99;100.00;93476.88;2072620;28;20054;-85
2023/10/11 01:24:11;;;;;;;8.13;3.70;;;;;;;7.90;100.00;93469.34;2083754;28;20025;-85
2023/10/11 01:25:12;;;;;;;8.73;4.20;;;;;;;8.04;100.00;93468.50;2088490;28;20055;-86
2023/10/11 01:26:15;;;;;;;6.90;3.92;;;;;;;8.16;100.00;93473.34;2096790;28;20058;-85
2023/10/11 01:27:16;;;;;;;7.07;3.28;;;;;;;8.09;100.00;93470.75;2098269;28;20118;-85
2023/10/11 01:28:18;;;;;;;6.72;3.10;;;;;;;7.97;100.00;93471.19;2098964;28;20031;-85
2023/10/11 01:29:19;;;;;;;6.32;3.47;;;;;;;8.03;100.00;93478.41;2101288;28;20034;-85
2023/10/11 01:30:20;;;;;;;7.75;3.70;;;;;;;7.95;100.00;93471.59;2103960;28;20031;-86
2023/10/11 01:31:21;;;;;;;6.55;2.95;;;;;;;7.85;100.00;93469.00;2103798;28;20514;-85
2023/10/11 01:32:22;;;;;;;13.07;4.15;;;;;;;7.98;100.00;93472.72;2098472;28;20027;-85
2023/10/11 01:33:23;;;;;;;9.75;3.38;;;;;;;7.95;100.00;93471.59;2094608;28;20051;-86
2023/10/11 01:34:27;;;;;;;10.13;3.65;;;;;;;7.91;100.00;93470.88;2088323;28;20024;-84
2023/10/11 01:35:35;;;;;;;12.82;3.88;;;;;;;7.93;100.00;93468.56;2094441;28;20048;-86
2023/10/11 01:36:39;;;;;;;8.57;3.60;;;;;;;7.83;100.00;93467.47;2097982;28;20024;-85
2023/10/11 01:37:43;;;;;;;7.90;3.45;;;;;;;7.74;100.00;93469.06;2102160;28;20207;-84
2023/10/11 01:38:46;;;;;;;4.72;2.78;;;;;;;7.78;100.00;93462.56;2092811;28;20390;-85
2023/10/11 01:39:49;;;;;;;6.60;3.63;;;;;;;7.82;100.00;93465.97;2105050;28;20031;-84
2023/10/11 01:40:54;;;;;;;6.80;3.55;;;;;;;7.66;100.00;93468.34;2096500;28;20039;-85
2023/10/11 01:41:58;;;;;;;6.70;3.50;;;;;;;7.69;100.00;93456.16;2085409;28;20025;-84
2023/10/11 01:43:02;;;;;;;8.38;3.58;;;;;;;7.67;100.00;93463.75;2091857;28;20029;-85
2023/10/11 01:44:03;;;;;;;6.95;3.67;;;;;;;7.59;100.00;93465.69;2092701;28;20029;-86
2023/10/11 01:45:08;;;;;;;8.27;3.63;;;;;;;7.60;100.00;93467.22;2091370;28;20498;-85
2023/10/11 01:46:09;;;;;;;7.07;3.70;;;;;;;7.68;100.00;93458.06;2088237;28;20057;-85
2023/10/11 01:47:10;;;;;;;7.50;3.70;;;;;;;7.71;100.00;93462.59;2089495;28;20399;-85
2023/10/11 01:48:15;;;;;;;13.32;4.03;;;;;;;7.71;100.00;93461.84;2090566;28;20101;-85
2023/10/11 01:49:16;;;;;;;7.55;3.67;;;;;;;7.79;100.00;93465.97;2097139;28;20028;-84
2023/10/11 01:50:17;;;;;;;10.80;3.33;;;;;;;7.67;100.00;93463.75;2096915;28;20055;-85
2023/10/11 01:51:26;;;;;;;12.25;3.72;;;;;;;7.67;100.00;93469.09;2103421;28;20110;-85
2023/10/11 01:52:34;;;;;;;8.88;3.35;;;;;;;7.85;100.00;93461.75;2084959;28;20502;-85
2023/10/11 01:53:38;;;;;;;8.65;3.70;;;;;;;7.98;100.00;93465.47;2085024;28;20021;-85
2023/10/11 01:54:39;;;;;;;7.28;3.28;;;;;;;8.04;100.00;93463.94;2083767;28;20057;-85
2023/10/11 01:55:40;;;;;;;8.57;3.85;;;;;;;8.06;100.00;93458.22;2073687;28;20052;-85
2023/10/11 01:56:42;;;;;;;8.85;3.92;;;;;;;8.05;100.00;93454.03;2092789;28;20040;-84
2023/10/11 01:57:48;;;;;;;7.63;4.00;;;;;;;8.04;100.00;93453.28;2094044;28;20672;-84
2023/10/11 01:58:52;;;;;;;8.48;3.20;;;;;;;8.02;100.00;93455.56;2086853;28;20029;-85
2023/10/11 01:59:53;;;;;;;10.88;4.50;;;;;;;8.02;100.00;93458.22;2085006;28;20041;-85
2023/10/11 02:00:55;;;;;;;7.10;3.22;;;;;;;8.03;100.00;93453.66;2080552;28;20033;-84
2023/10/11 02:02:01;;;;;;;7.72;3.80;;;;;;;8.23;100.00;93454.66;2089744;28;20466;-85
2023/10/11 02:03:03;;;;;;;8.77;4.15;;;;;;;8.28;100.00;93451.59;2081292;28;20025;-85
2023/10/11 02:04:17;;;;;;;9.20;3.50;;;;;;;8.23;100.00;93451.25;2085631;28;20199;-84
2023/10/11 02:05:21;;;;;;;9.25;3.60;;;;;;;8.25;100.00;93443.63;2100781;28;20020;-84
2023/10/11 02:06:23;;;;;;;11.30;3.95;;;;;;;8.29;100.00;93460.31;2096685;28;20026;-85
2023/10/11 02:07:24;;;;;;;8.50;3.55;;;;;;;8.35;100.00;93450.03;2093757;28;20626;-85
2023/10/11 02:08:27;;;;;;;9.07;3.80;;;;;;;8.27;100.00;93454.66;2087415;28;20028;-85
2023/10/11 02:09:28;;;;;;;9.57;4.03;;;;;;;8.29;100.00;93450.44;2095438;28;20404;-85
2023/10/11 02:10:33;;;;;;;8.25;3.75;;;;;;;8.29;100.00;93447.00;2095237;28;20025;-85
2023/10/11 02:11:35;;;;;;;7.95;3.60;;;;;;;8.37;100.00;93447.75;2084003;28;20021;-85
2023/10/11 02:12:36;;;;;;;6.07;3.35;;;;;;;8.23;100.00;93451.25;2090805;28;20023;-85
2023/10/11 02:13:39;;;;;;;11.63;3.90;;;;;;;8.15;100.00;93442.56;2095037;28;20035;-85
2023/10/11 02:14:40;;;;;;;7.38;3.38;;;;;;;8.29;100.00;93444.34;2088944;28;20227;-85
2023/10/11 02:15:42;;;;;;;10.50;3.60;;;;;;;8.29;100.00;93445.09;2091266;28;20035;-85
2023/10/11 02:16:43;;;;;;;12.23;3.92;;;;;;;8.22;100.00;93447.84;2084635;28;20025;-84
2023/10/11 02:17:47;;;;;;;6.55;3.50;;;;;;;8.27;100.00;93449.31;2092595;28;20028;-85
2023/10/11 02:18:51;;;;;;;9.25;3.30;;;;;;;8.27;100.00;93454.66;2083748;28;20025;-85
2023/10/11 02:19:53;;;;;;;7.70;4.18;;;;;;;8.15;100.00;93445.22;2089206;28;20021;-85
2023/10/11 02:20:55;;;;;;;8.80;3.58;;;;;;;8.19;100.00;93443.28;2091677;28;20377;-84
2023/10/11 02:21:56;;;;;;;7.18;3.60;;;;;;;8.21;100.00;93453.53;2100374;28;20570;-86
2023/10/11 02:22:59;;;;;;;9.15;3.80;;;;;;;8.18;100.00;93449.00;2089513;28;20048;-85
2023/10/11 02:24:00;;;;;;;6.57;3.10;;;;;;;8.19;100.00;93445.94;2096270;28;20501;-85
2023/10/11 02:25:01;;;;;;;6.35;3.75;;;;;;;7.94;100.00;93443.44;2105304;28;20028;-85
2023/10/11 02:26:03;;;;;;;7.60;3.63;;;;;;;7.94;100.00;93448.78;2088664;28;20517;-85
2023/10/11 02:27:06;;;;;;;8.13;4.03;;;;;;;7.93;100.00;93457.91;2082772;28;20022;-85
2023/10/11 02:28:09;;;;;;;8.32;4.07;;;;;;;7.87;100.00;93451.50;2102480;28;20567;-85
2023/10/11 02:29:16;;;;;;;9.43;4.20;;;;;;;7.86;100.00;93452.66;2090315;28;20102;-85
2023/10/11 02:30:21;;;;;;;6.43;3.55;;;;;;;7.95;100.00;93436.25;2089417;28;20031;-84
2023/10/11 02:31:26;;;;;;;10.75;4.25;;;;;;;7.94;100.00;93454.09;2099719;28;20059;-84
2023/10/11 02:32:32;;;;;;;4.70;3.47;;;;;;;7.96;100.00;93451.81;2088292;28;20029;-85
2023/10/11 02:33:34;;;;;;;8.65;3.92;;;;;;;7.90;100.00;93449.94;2095483;28;20033;-85
2023/10/11 02:34:35;;;;;;;6.68;3.40;;;;;;;7.86;100.00;93455.31;2106108;28;20016;-85
2023/10/11 02:35:51;;;;;;;8.73;3.53;;;;;;;7.80;100.00;93449.63;2097632;28;20377;-85
2023/10/11 02:37:01;;;;;;;7.10;3.60;;;;;;;7.87;100.00;93451.50;2082278;28;20095;-84
2023/10/11 02:38:09;;;;;;;6.70;3.50;;;;;;;7.96;100.00;93449.16;2075307;28;20578;-85
2023/10/11 02:39:17;;;;;;;8.80;3.50;;;;;;;7.87;100.00;93453.41;2088827;28;20390;-85
2023/10/11 02:40:23;;;;;;;5.57;3.22;;;;;;;7.86;100.00;93457.19;2088186;28;20029;-85
2023/10/11 02:41:25;;;;;;;6.07;3.40;;;;;;;7.88;100.00;93458.31;2081856;28;20152;-84
2023/10/11 02:42:26;;;;;;;5.55;3.10;;;;;;;7.94;100.00;93442.69;2097386;28;20062;-86
2023/10/11 02:43:27;;;;;;;5.03;3.47;;;;;;;7.73;100.00;93446.25;2105249;28;20157;-85
2023/10/11 02:44:29;;;;;;;9.48;4.20;;;;;;;7.82;100.00;93449.25;2096605;28;20056;-85
2023/10/11 02:45:33;;;;;;;6.43;3.38;;;;;;;7.93;100.00;93441.94;2083802;28;20040;-84
2023/10/11 02:46:36;;;;;;;9.85;3.63;;;;;;;7.86;100.00;93447.31;2098099;28;20549;-84
2023/10/11 02:47:37;;;;;;;8.25;3.80;;;;;;;7.73;100.00;93440.94;2089425;28;20040;-85
2023/10/11 02:48:37;;;;;;;10.13;4.00;;;;;;;7.59;100.00;93441.75;2097362;28;20021;-85
2023/10/11 02:49:38;;;;;;;12.02;3.70;;;;;;;7.72;100.00;93437.50;2104993;28;20469;-85
2023/10/11 02:50:45;;;;;;;10.55;3.70;;;;;;;7.67;100.00;93443.22;2091884;28;20063;-85
2023/10/11 02:51:55;;;;;;;11.00;3.80;;;;;;;7.67;100.00;93445.91;2088112;28;20028;-85
2023/10/11 02:52:59;;;;;;;7.35;3.53;;;;;;;7.69;100.00;93438.31;2085669;28;20021;-85
2023/10/11 02:54:04;;;;;;;12.15;3.92;;;;;;;7.78;100.00;93437.88;2088539;28;20040;-85
2023/10/11 02:56:20;;;;;;;9.65;3.83;;;;;;;7.75;100.00;93442.06;2092664;28;20079;-85
2023/10/11 02:57:21;;;;;;;6.30;3.17;;;;;;;7.74;100.00;93440.53;2103567;28;20608;-85
2023/10/11 02:58:22;;;;;;;6.78;3.78;;;;;;;7.75;100.00;93446.63;2095788;28;20057;-85
2023/10/11 02:59:25;;;;;;;7.15;3.55;;;;;;;7.72;100.00;93450.81;2093565;28;20025;-85
2023/10/11 03:00:26;;;;;;;9.40;3.95;;;;;;;7.74;100.00;93445.13;2093405;28;20171;-85
2023/10/11 03:01:31;;;;;;;9.65;3.78;;;;;;;7.82;100.00;93443.94;2105416;28;20020;-85
2023/10/11 03:02:38;;;;;;;10.00;3.95;;;;;;;7.83;100.00;93448.09;2091368;28;20025;-86
2023/10/11 03:03:42;;;;;;;7.18;4.18;;;;;;;7.86;100.00;93446.53;2101152;28;20031;-85
2023/10/11 03:04:43;;;;;;;6.78;3.47;;;;;;;7.82;100.00;93443.94;2102504;28;20482;-85
2023/10/11 03:05:45;;;;;;;7.00;4.07;;;;;;;7.87;100.00;93446.16;2096682;28;20020;-85
2023/10/11 03:06:49;;;;;;;6.60;4.05;;;;;;;7.78;100.00;93433.31;2088761;28;20024;-85
2023/10/11 03:07:50;;;;;;;8.27;3.85;;;;;;;7.90;100.00;93433.97;2084502;28;20024;-84
2023/10/11 03:08:53;;;;;;;7.57;3.65;;;;;;;7.91;100.00;93430.19;2100676;28;20032;-85
2023/10/11 03:09:54;;;;;;;8.15;4.05;;;;;;;7.85;100.00;93432.47;2101669;28;20407;-85
2023/10/11 03:10:56;;;;;;;12.10;4.65;;;;;;;7.84;100.00;93444.28;2091978;28;20036;-86
2023/10/11 03:12:05;;;;;;;9.27;3.95;;;;;;;7.88;100.00;93431.72;2087754;28;20036;-84
2023/10/11 03:13:06;;;;;;;6.47;3.40;;;;;;;7.90;100.00;93440.09;2096265;28;20032;-84
2023/10/11 03:14:07;;;;;;;9.32;3.80;;;;;;;7.96;100.00;93433.19;2088961;28;20634;-85
2023/10/11 03:15:11;;;;;;;10.65;3.78;;;;;;;8.06;100.00;93434.25;2113610;28;20431;-85
2023/10/11 03:16:17;;;;;;;7.72;3.97;;;;;;;8.10;100.00;93434.22;2104994;28;20060;-85
2023/10/11 03:17:20;;;;;;;8.70;4.32;;;;;;;8.00;100.00;93433.91;2111293;28;20391;-84
2023/10/11 03:18:39;;;;;;;7.18;4.07;;;;;;;8.00;100.00;93439.25;2097220;28;20548;-85
2023/10/11 03:19:43;;;;;;;6.80;3.55;;;;;;;7.93;100.00;93431.28;2089289;28;20025;-85
2023/10/11 03:20:45;;;;;;;10.48;3.85;;;;;;;7.94;100.00;93432.06;2100584;28;20025;-85
2023/10/11 03:21:46;;;;;;;7.82;4.00;;;;;;;7.90;100.00;93426.00;2100684;28;20049;-85
2023/10/11 03:22:51;;;;;;;10.15;3.67;;;;;;;7.94;100.00;93435.47;2094480;28;20758;-85
2023/10/11 03:23:55;;;;;;;11.65;3.60;;;;;;;8.02;100.00;93428.94;2102619;28;20056;-86
2023/10/11 03:25:12;;;;;;;6.07;3.90;;;;;;;8.26;100.00;93426.50;2088793;28;20060;-85
2023/10/11 03:26:31;;;;;;;7.63;3.50;;;;;;;8.39;100.00;93430.22;2097138;28;20073;-85
2023/10/11 03:27:37;;;;;;;9.90;3.55;;;;;;;8.25;100.00;93427.63;2086747;28;20032;-85
2023/10/11 03:28:38;;;;;;;9.23;3.95;;;;;;;8.25;100.00;93424.97;2090992;28;20565;-85
2023/10/11 03:29:40;;;;;;;9.70;3.97;;;;;;;8.23;100.00;93428.03;2089928;28;20080;-85
2023/10/11 03:30:42;;;;;;;9.90;4.15;;;;;;;8.25;100.00;93427.63;2089550;28;20671;-85
2023/10/11 03:31:43;;;;;;;13.52;4.10;;;;;;;8.15;100.00;93428.47;2102663;28;20031;-86
2023/10/11 03:32:45;;;;;;;8.10;3.42;;;;;;;7.91;100.00;93425.63;2093901;28;20024;-85
2023/10/11 03:33:46;;;;;;;9.60;3.92;;;;;;;7.66;100.00;93425.75;2076190;28;20025;-85
2023/10/11 03:34:46;;;;;;;7.07;3.72;;;;;;;7.68;100.00;93428.03;2088602;28;20024;-84
2023/10/11 03:35:48;;;;;;;9.27;3.72;;;;;;;7.55;100.00;93428.50;2096505;28;20052;-84
2023/10/11 03:36:49;;;;;;;9.13;4.00;;;;;;;7.73;100.00;93427.63;2106167;28;20024;-86
2023/10/11 03:37:57;;;;;;;14.95;4.00;;;;;;;7.98;100.00;93422.13;2113340;28;20031;-86
2023/10/11 03:39:08;;;;;;;12.38;3.85;;;;;;;7.95;100.00;93423.69;2094887;28;20585;-85
2023/10/11 03:40:28;;;;;;;8.20;3.85;;;;;;;7.97;100.00;93423.28;2084248;28;20059;-86
2023/10/11 03:41:31;;;;;;;8.38;3.83;;;;;;;7.98;100.00;93425.56;2098021;28;20157;-84
2023/10/11 03:42:50;;;;;;;8.32;3.55;;;;;;;8.02;100.00;93426.28;2082759;28;20024;-85
2023/10/11 03:43:54;;;;;;;5.10;3.10;;;;;;;8.10;100.00;93427.00;2077812;28;20037;-85
2023/10/11 03:44:58;;;;;;;9.98;3.53;;;;;;;7.87;100.00;93421.47;2090360;28;20017;-85
2023/10/11 03:46:01;;;;;;;5.95;3.35;;;;;;;7.70;100.00;93425.75;2097561;28;20029;-85
2023/10/11 03:47:07;;;;;;;7.95;3.70;;;;;;;7.56;100.00;93427.34;2092527;28;20456;-85
2023/10/11 03:48:09;;;;;;;9.65;3.92;;;;;;;7.58;100.00;93430.34;2093232;28;20067;-85
2023/10/11 03:50:34;;;;;;;6.88;3.60;;;;;;;7.54;100.00;93429.63;2100474;28;20024;-85
2023/10/11 03:51:35;;;;;;;7.18;3.70;;;;;;;7.56;100.00;93427.34;2096834;28;20369;-85
2023/10/11 03:52:40;;;;;;;8.13;3.50;;;;;;;7.42;100.00;93427.41;2089590;28;20022;-85
2023/10/11 03:53:41;;;;;;;4.20;3.20;;;;;;;7.52;100.00;93429.25;2109704;28;20114;-85
2023/10/11 03:54:42;;;;;;;5.03;3.25;;;;;;;7.53;100.00;93435.34;2107432;28;20019;-85
2023/10/11 03:55:47;;;;;;;7.13;3.45;;;;;;;7.41;100.00;93417.16;2099717;28;20514;-84
2023/10/11 03:56:55;;;;;;;7.07;3.35;;;;;;;7.40;100.00;93424.38;2093971;28;20040;-85
2023/10/11 03:58:04;;;;;;;8.77;3.35;;;;;;;7.50;100.00;93422.81;2090820;28;20417;-84
2023/10/11 03:59:06;;;;;;;6.95;3.22;;;;;;;7.31;100.00;93424.78;2093852;28;20028;-85
2023/10/11 04:01:27;;;;;;;9.35;3.92;;;;;;;7.43;100.00;93426.28;2091087;28;20056;-85
2023/10/11 04:02:28;;;;;;;8.52;3.53;;;;;;;7.45;100.00;93423.22;2089008;28;20052;-84
2023/10/11 04:03:29;;;;;;;7.18;3.75;;;;;;;7.47;100.00;93427.00;2089690;28;20052;-84
2023/10/11 04:04:30;;;;;;;10.10;3.85;;;;;;;7.43;100.00;93420.19;2098776;28;20024;-85
2023/10/11 04:05:35;;;;;;;9.02;3.78;;;;;;;7.31;100.00;93424.03;2102395;28;20040;-85
2023/10/11 04:06:36;;;;;;;10.88;3.70;;;;;;;7.46;100.00;93427.38;2095045;28;20585;-85
2023/10/11 04:07:40;;;;;;;7.30;4.28;;;;;;;7.51;100.00;93427.75;2085869;28;20025;-85
2023/10/11 04:08:42;;;;;;;8.50;3.67;;;;;;;7.41;100.00;93425.13;2102233;28;20028;-85
2023/10/11 04:09:46;;;;;;;7.05;3.70;;;;;;;7.31;100.00;93424.03;2106106;28;20106;-86
2023/10/11 04:10:49;;;;;;;6.35;3.60;;;;;;;7.25;100.00;93422.94;2099389;28;20029;-84
2023/10/11 04:11:57;;;;;;;10.18;4.05;;;;;;;7.29;100.00;93419.13;2098122;28;20101;-84
2023/10/11 04:12:59;;;;;;;9.30;3.90;;;;;;;7.14;100.00;93425.63;2100855;28;20036;-84
2023/10/11 04:14:00;;;;;;;7.07;4.00;;;;;;;7.31;100.00;93424.78;2096852;28;20021;-84
2023/10/11 04:15:17;;;;;;;9.02;4.40;;;;;;;7.32;100.00;93428.22;2097812;28;20024;-85
2023/10/11 04:16:18;;;;;;;8.73;3.83;;;;;;;7.34;100.00;93412.63;2101821;28;20047;-85
2023/10/11 04:18:33;;;;;;;8.77;3.63;;;;;;;7.31;100.00;93421.38;2110218;28;20034;-84
2023/10/11 04:19:35;;;;;;;;;;;;;;;7.30;100.00;93414.56;2105265;28;20028;-84
2023/10/11 04:20:40;;;;;;;7.35;3.72;;;;;;;7.32;100.00;93413.00;2099049;28;19989;-84
2023/10/11 04:22:12;;;;;;;12.02;4.00;;;;;;;7.37;100.00;93411.09;2086257;28;20029;-85
2023/10/11 04:23:14;;;;;;;7.93;3.30;;;;;;;7.31;100.00;93410.75;2104001;28;20065;-85
2023/10/11 04:24:19;;;;;;;8.93;3.97;;;;;;;7.24;100.00;93411.56;2093157;28;20071;-84
2023/10/11 04:25:23;;;;;;;8.30;3.35;;;;;;;7.25;100.00;93413.06;2090679;28;20078;-84
2023/10/11 04:26:37;;;;;;;10.95;4.03;;;;;;;7.32;100.00;93414.91;2097494;28;20020;-85
2023/10/11 04:27:45;;;;;;;6.45;3.33;;;;;;;7.38;100.00;93412.63;2098472;28;20033;-85
2023/10/11 04:28:46;;;;;;;6.13;3.40;;;;;;;7.35;100.00;93416.81;2102463;28;20511;-85
2023/10/11 04:29:51;;;;;;;10.40;3.75;;;;;;;7.35;100.00;93411.50;2083621;28;20034;-83
2023/10/11 04:31:27;;;;;;;8.63;3.90;;;;;;;7.32;100.00;93421.00;2078551;28;20778;-85
2023/10/11 04:32:14;;;;;;;8.30;4.20;;;;;;;7.17;100.00;93416.13;2102479;28;20123;-84
2023/10/11 04:33:21;;;;;;;5.18;3.72;;;;;;;7.23;100.00;93418.00;2099149;28;20025;-85
2023/10/11 04:34:32;;;;;;;8.35;3.75;;;;;;;7.32;100.00;93421.00;2107419;28;21202;-84
2023/10/11 04:35:42;;;;;;;6.15;3.45;;;;;;;7.27;100.00;93428.63;2094639;28;20032;-84
2023/10/11 04:36:43;;;;;;;6.70;3.60;;;;;;;7.29;100.00;93421.78;2096181;28;20020;-84
2023/10/11 04:37:50;;;;;;;7.28;4.13;;;;;;;7.20;100.00;93426.75;2102604;28;20028;-85
2023/10/11 04:38:52;;;;;;;7.95;3.75;;;;;;;7.14;100.00;93428.28;2093068;28;20112;-85
2023/10/11 04:39:56;;;;;;;8.52;3.88;;;;;;;7.15;100.00;93421.81;2089096;28;20025;-85
2023/10/11 04:41:02;;;;;;;7.97;4.57;;;;;;;7.24;100.00;93421.41;2083223;28;20447;-85
2023/10/11 04:42:03;;;;;;;7.10;3.47;;;;;;;7.28;100.00;93424.81;2103727;28;20024;-85
2023/10/11 04:43:25;;;;;;;4.90;3.42;;;;;;;7.33;100.00;93419.09;2092000;28;20021;-85
2023/10/11 04:44:54;;;;;;;8.23;3.75;;;;;;;7.32;100.00;93426.31;2105886;28;20119;-85
2023/10/11 04:46:00;;;;;;;6.60;3.17;;;;;;;7.16;100.00;93422.59;2099414;28;20024;-85
2023/10/11 04:47:01;;;;;;;9.48;4.28;;;;;;;7.24;100.00;93424.84;2091090;28;20029;-85
2023/10/11 04:48:03;;;;;;;8.73;3.90;;;;;;;7.20;100.00;93425.97;2097606;28;20394;-85
2023/10/11 04:49:25;;;;;;;8.07;3.33;;;;;;;7.09;100.00;93426.03;2112043;28;20032;-85
2023/10/11 04:50:25;;;;;;;9.43;4.45;;;;;;;7.17;100.00;93427.53;2107593;28;20104;-85
2023/10/11 04:51:37;;;;;;;11.77;3.95;;;;;;;7.19;100.00;93429.78;2083827;28;20458;-84
2023/10/11 04:52:38;;;;;;;6.82;3.45;;;;;;;7.21;100.00;93430.16;2097516;28;20363;-84
2023/10/11 04:54:13;;;;;;;7.63;3.42;;;;;;;7.19;100.00;93427.88;2081080;28;20071;-85
2023/10/11 04:55:12;;;;;;;5.82;3.67;;;;;;;7.20;100.00;93431.28;2089007;28;20405;-84
2023/10/11 04:57:40;;;;;;;7.97;4.18;;;;;;;7.31;100.00;93432.00;2101519;28;20032;-84
2023/10/11 04:58:54;;;;;;;8.98;3.83;;;;;;;7.19;100.00;93435.09;2113095;28;20394;-85
2023/10/11 04:59:59;;;;;;;9.18;3.80;;;;;;;7.19;100.00;93432.44;2098520;28;20536;-85
2023/10/11 05:01:02;;;;;;;7.00;3.53;;;;;;;7.22;100.00;93427.13;2084711;28;20096;-85
2023/10/11 05:02:18;;;;;;;8.25;4.25;;;;;;;7.14;100.00;93430.19;2080921;28;20081;-85
2023/10/11 05:03:23;;;;;;;7.30;3.28;;;;;;;7.10;100.00;93429.44;2092545;28;20024;-84
2023/10/11 05:04:28;;;;;;;7.72;3.65;;;;;;;7.10;100.00;93424.88;2106071;28;20354;-85
2023/10/11 05:05:29;;;;;;;8.13;3.90;;;;;;;7.08;100.00;93435.16;2103014;28;20229;-85
2023/10/11 05:06:39;;;;;;;8.80;3.28;;;;;;;7.14;100.00;93433.59;2103589;28;20291;-85
2023/10/11 05:07:42;;;;;;;;;;;;;;;7.09;100.00;93434.00;2104629;28;20024;-85
2023/10/11 05:08:54;;;;;;;8.23;3.38;;;;;;;7.03;100.00;93433.66;2100178;28;20269;-84